Time;durP1;ratioP1;P1;durP2;ratioP2;P2;SDS_P1;SDS_P2;PMS_P1;PMS_P2;Temp;Humidity;BMP_temperature;BMP_pressure;BME280_temperature;BME280_humidity;BME280_pressure;Samples;Min_cycle;Max_cycle;Signal;HPM_P1;HPM_P2
2024/01/04 00:00:37;;;;;;;1.33;1.23;;;;;;;7.91;100.00;96872.94;4167054;28;20665;-49
2024/01/04 00:02:39;;;;;;;0.95;0.68;;;;;;;7.95;100.00;96879.47;4168503;28;20211;-50
2024/01/04 00:04:41;;;;;;;5.32;0.93;;;;;;;7.91;100.00;96883.81;4166759;28;20208;-50
2024/01/04 00:06:45;;;;;;;0.98;0.93;;;;;;;7.91;100.00;96878.38;4175102;28;20239;-50
2024/01/04 00:08:47;;;;;;;1.65;1.63;;;;;;;7.90;100.00;96880.25;4166402;28;20204;-48
2024/01/04 00:10:49;;;;;;;4.55;1.55;;;;;;;7.88;100.00;96890.63;4168766;28;20212;-50
2024/01/04 00:12:53;;;;;;;0.77;0.77;;;;;;;7.88;100.00;96877.00;4169704;28;20533;-49
2024/01/04 00:14:54;;;;;;;4.50;1.20;;;;;;;7.88;100.00;96879.72;4165276;28;20212;-49
2024/01/04 00:16:56;;;;;;;2.50;1.40;;;;;;;7.87;100.00;96874.56;4202111;28;20584;-49
2024/01/04 00:18:58;;;;;;;1.58;1.35;;;;;;;7.88;100.00;96885.19;4157631;28;20291;-51
2024/01/04 00:21:02;;;;;;;2.72;0.80;;;;;;;7.88;100.00;96895.28;4170435;28;20690;-50
2024/01/04 00:23:04;;;;;;;0.90;0.90;;;;;;;7.89;100.00;96886.00;4171302;28;20235;-50
2024/01/04 00:25:07;;;;;;;13.27;1.23;;;;;;;7.89;100.00;96888.72;4176535;28;20270;-50
2024/01/04 00:27:09;;;;;;;1.35;0.88;;;;;;;7.90;100.00;96888.44;4170950;28;20290;-54
2024/01/04 00:29:10;;;;;;;6.18;2.38;;;;;;;7.85;100.00;96883.00;4175013;28;20227;-52
2024/01/04 00:31:12;;;;;;;0.82;0.82;;;;;;;7.88;100.00;96879.72;4185718;28;20249;-52
2024/01/04 00:33:14;;;;;;;1.05;1.05;;;;;;;7.87;100.00;96893.59;4168345;28;20212;-52
2024/01/04 00:35:16;;;;;;;1.08;0.55;;;;;;;7.87;100.00;96899.06;4167562;28;20223;-51
2024/01/04 00:37:18;;;;;;;1.48;1.38;;;;;;;7.84;100.00;96891.44;4166526;28;20209;-52
2024/01/04 00:39:24;;;;;;;1.13;1.13;;;;;;;7.86;100.00;96897.44;4167113;28;20243;-51
2024/01/04 00:41:26;;;;;;;1.38;0.73;;;;;;;7.84;100.00;96911.34;4184220;28;20216;-51
2024/01/04 00:43:27;;;;;;;1.23;1.15;;;;;;;7.87;100.00;96894.44;4166074;28;20213;-51
2024/01/04 00:45:29;;;;;;;0.95;0.95;;;;;;;7.87;100.00;96910.78;4171290;28;20235;-52
2024/01/04 00:47:31;;;;;;;2.67;0.80;;;;;;;7.86;100.00;96911.03;4166413;28;20274;-52
2024/01/04 00:49:33;;;;;;;1.10;1.02;;;;;;;7.84;100.00;96905.06;4170924;28;20224;-52
2024/01/04 00:51:35;;;;;;;1.00;0.90;;;;;;;7.84;100.00;96908.63;4168295;28;20235;-52
2024/01/04 00:53:37;;;;;;;0.80;0.80;;;;;;;7.82;100.00;96901.81;4168830;28;20197;-52
2024/01/04 00:55:38;;;;;;;1.00;0.90;;;;;;;7.80;100.00;96914.84;4169740;28;20227;-50
2024/01/04 00:57:40;;;;;;;4.32;1.10;;;;;;;7.84;100.00;96913.22;4177263;28;20204;-51
2024/01/04 00:59:42;;;;;;;0.75;0.75;;;;;;;7.83;100.00;96911.59;4169616;28;20224;-52
2024/01/04 01:01:43;;;;;;;4.47;1.38;;;;;;;7.82;100.00;96923.59;4172139;28;20737;-53
2024/01/04 01:03:45;;;;;;;1.35;1.35;;;;;;;7.87;100.00;96921.66;4169894;28;20266;-53
2024/01/04 01:05:47;;;;;;;10.18;1.20;;;;;;;7.84;100.00;96921.41;4170764;28;20235;-52
2024/01/04 01:07:49;;;;;;;8.43;2.55;;;;;;;7.85;100.00;96925.75;4167562;28;20323;-52
2024/01/04 01:09:52;;;;;;;1.10;1.10;;;;;;;7.81;100.00;96927.41;4170774;28;20946;-52
2024/01/04 01:11:53;;;;;;;15.52;0.90;;;;;;;7.84;100.00;96921.41;4171798;28;20263;-51
2024/01/04 01:13:55;;;;;;;1.88;1.77;;;;;;;7.84;100.00;96938.56;4167260;28;20246;-51
2024/01/04 01:16:00;;;;;;;2.25;1.08;;;;;;;7.83;100.00;96926.00;4166598;28;20222;-52
2024/01/04 01:18:02;;;;;;;1.05;0.90;;;;;;;7.80;100.00;96917.56;4174581;28;20195;-51
2024/01/04 01:20:05;;;;;;;0.75;0.75;;;;;;;7.80;100.00;96937.47;4167405;28;20239;-51
2024/01/04 01:22:07;;;;;;;0.60;0.60;;;;;;;7.85;100.00;96939.34;4166285;28;20256;-50
2024/01/04 01:24:09;;;;;;;2.05;1.50;;;;;;;7.78;100.00;96939.66;4168860;28;20213;-51
2024/01/04 01:26:11;;;;;;;1.85;1.35;;;;;;;7.81;100.00;96949.19;4165838;28;20291;-51
2024/01/04 01:28:13;;;;;;;1.63;1.23;;;;;;;7.78;100.00;96955.16;4158322;28;20216;-52
2024/01/04 01:30:17;;;;;;;1.77;0.95;;;;;;;7.80;100.00;96970.13;4165125;28;20716;-51
2024/01/04 01:32:19;;;;;;;0.60;0.60;;;;;;;7.77;100.00;96961.69;4168810;28;20661;-51
2024/01/04 01:34:21;;;;;;;8.70;1.05;;;;;;;7.78;100.00;96966.03;4164730;28;20629;-52
2024/01/04 01:36:25;;;;;;;2.88;1.30;;;;;;;7.79;100.00;96973.13;4168986;28;20785;-51
2024/01/04 01:38:27;;;;;;;1.05;1.05;;;;;;;7.79;100.00;96982.09;4168962;28;20214;-52
2024/01/04 01:40:29;;;;;;;2.17;1.17;;;;;;;7.79;100.00;96978.56;4167960;28;20289;-52
2024/01/04 01:42:31;;;;;;;1.42;1.33;;;;;;;7.73;100.00;96990.53;4169396;28;20216;-52
2024/01/04 01:44:32;;;;;;;4.05;1.17;;;;;;;7.69;100.00;96984.00;4168671;28;20207;-51
2024/01/04 01:46:34;;;;;;;0.68;0.68;;;;;;;7.69;100.00;96997.59;4176688;28;20224;-52
2024/01/04 01:48:36;;;;;;;0.70;0.70;;;;;;;7.68;100.00;96994.06;4163056;28;20208;-52
2024/01/04 01:50:38;;;;;;;2.08;1.98;;;;;;;7.73;100.00;97001.41;4168485;28;20283;-51
2024/01/04 01:52:40;;;;;;;0.50;0.50;;;;;;;7.72;100.00;97005.22;4150804;28;20205;-51
2024/01/04 01:54:42;;;;;;;0.60;0.60;;;;;;;7.71;100.00;97004.44;4158732;28;20204;-51
2024/01/04 01:56:44;;;;;;;1.10;1.05;;;;;;;7.70;100.00;97018.28;4181718;28;20250;-52
2024/01/04 01:58:47;;;;;;;4.72;0.70;;;;;;;7.69;100.00;97022.91;4164549;28;20212;-52
2024/01/04 02:00:49;;;;;;;1.33;1.23;;;;;;;7.66;100.00;97033.50;4146966;28;20935;-52
2024/01/04 02:02:51;;;;;;;0.68;0.65;;;;;;;7.68;100.00;97034.09;4167844;28;20747;-52
2024/01/04 02:04:54;;;;;;;0.60;0.60;;;;;;;7.66;100.00;97033.50;4174067;28;20255;-50
2024/01/04 02:06:56;;;;;;;0.52;0.52;;;;;;;7.65;100.00;97042.78;4168659;28;20263;-52
2024/01/04 02:08:58;;;;;;;0.95;0.95;;;;;;;7.61;100.00;97047.13;4169184;28;20228;-53
2024/01/04 02:11:00;;;;;;;1.88;1.30;;;;;;;7.57;100.00;97041.38;4163947;28;20248;-52
2024/01/04 02:13:02;;;;;;;0.70;0.70;;;;;;;7.58;100.00;97048.47;4166969;28;20203;-52
2024/01/04 02:15:04;;;;;;;1.13;0.63;;;;;;;7.62;100.00;97052.28;4166879;28;20620;-52
2024/01/04 02:17:06;;;;;;;1.02;0.50;;;;;;;7.56;100.00;97056.06;4162668;28;20575;-52
2024/01/04 02:19:09;;;;;;;0.70;0.70;;;;;;;7.58;100.00;97061.25;4171969;28;20227;-52
2024/01/04 02:21:11;;;;;;;0.80;0.80;;;;;;;7.54;100.00;97062.88;4174008;28;20856;-51
2024/01/04 02:37:08;;;;;;;4.40;1.00;;;;;;;7.57;100.00;97086.84;4141699;28;20199;-50
2024/01/04 02:39:11;;;;;;;0.77;0.77;;;;;;;7.57;100.00;97092.28;4146095;28;20233;-51
2024/01/04 02:41:13;;;;;;;3.13;1.02;;;;;;;7.58;100.00;97096.63;4175999;28;20219;-51
2024/01/04 02:43:15;;;;;;;0.75;0.75;;;;;;;7.57;100.00;97095.81;4177953;28;20261;-51
2024/01/04 02:45:16;;;;;;;0.73;0.73;;;;;;;7.61;100.00;97094.19;4169894;28;20212;-50
2024/01/04 02:47:18;;;;;;;0.60;0.60;;;;;;;7.59;100.00;97098.28;4171739;28;20624;-51
2024/01/04 02:49:19;;;;;;;0.93;0.93;;;;;;;7.59;100.00;97106.44;4169529;28;20567;-51
2024/01/04 02:51:21;;;;;;;0.60;0.60;;;;;;;7.56;100.00;97098.81;4170763;28;20296;-51
2024/01/04 02:53:23;;;;;;;0.50;0.50;;;;;;;7.58;100.00;97112.97;4174664;28;20546;-51
2024/01/04 02:55:25;;;;;;;0.68;0.68;;;;;;;7.55;100.00;97102.63;4172890;28;20208;-51
2024/01/04 02:57:27;;;;;;;0.75;0.75;;;;;;;7.59;100.00;97106.44;4170767;28;20756;-52
2024/01/04 02:59:28;;;;;;;1.98;0.77;;;;;;;7.61;100.00;97112.47;4175121;28;20595;-52
2024/01/04 03:01:30;;;;;;;1.17;0.98;;;;;;;7.64;100.00;97120.06;4166975;28;20259;-52
2024/01/04 03:03:33;;;;;;;0.52;0.52;;;;;;;7.60;100.00;97121.69;4172353;28;20216;-52
2024/01/04 03:05:36;;;;;;;0.70;0.70;;;;;;;7.61;100.00;97134.22;4172798;28;20204;-53
2024/01/04 03:07:39;;;;;;;2.40;1.40;;;;;;;7.63;100.00;97143.75;4174165;28;20677;-53
2024/01/04 03:09:42;;;;;;;5.75;0.90;;;;;;;7.61;100.00;97139.66;4168962;28;20267;-52
2024/01/04 03:11:46;;;;;;;0.60;0.60;;;;;;;7.62;100.00;97138.59;4175267;28;20219;-52
2024/01/04 03:13:49;;;;;;;0.70;0.70;;;;;;;7.60;100.00;97140.72;4166843;28;20224;-52
2024/01/04 03:15:52;;;;;;;0.70;0.70;;;;;;;7.62;100.00;97147.56;4168966;28;20209;-53
2024/01/04 03:17:56;;;;;;;0.70;0.70;;;;;;;7.62;100.00;97144.81;4169897;28;20229;-54
2024/01/04 03:19:59;;;;;;;0.60;0.60;;;;;;;7.65;100.00;97157.09;4168047;28;20291;-52
2024/01/04 03:22:02;;;;;;;0.75;0.70;;;;;;;7.67;100.00;97155.75;4170574;28;20201;-52
2024/01/04 03:24:05;;;;;;;0.68;0.68;;;;;;;7.66;100.00;97156.00;4172999;28;20201;-53
2024/01/04 03:26:08;;;;;;;0.75;0.75;;;;;;;7.65;100.00;97160.66;4169495;28;20217;-51
2024/01/04 03:28:11;;;;;;;0.85;0.73;;;;;;;7.69;100.00;97160.94;4170253;28;20262;-53
2024/01/04 03:30:14;;;;;;;4.05;0.70;;;;;;;7.67;100.00;97171.25;4168061;28;20266;-53
2024/01/04 03:32:17;;;;;;;1.85;1.00;;;;;;;7.69;100.00;97171.81;4174330;28;20781;-52
2024/01/04 03:34:20;;;;;;;0.50;0.50;;;;;;;7.65;100.00;97173.44;4168759;28;20208;-51
2024/01/04 03:36:23;;;;;;;5.32;0.95;;;;;;;7.67;100.00;97177.53;4168685;28;20201;-53
2024/01/04 03:38:27;;;;;;;1.48;0.70;;;;;;;7.66;100.00;97185.94;4173284;28;20204;-52
2024/01/04 03:40:29;;;;;;;1.00;1.00;;;;;;;7.62;100.00;97182.13;4171172;28;20812;-52
2024/01/04 03:42:32;;;;;;;6.30;1.10;;;;;;;7.66;100.00;97175.06;4167758;28;20204;-53
2024/01/04 03:44:42;;;;;;;0.80;0.80;;;;;;;7.64;100.00;97185.41;4172393;28;20204;-52
2024/01/04 03:46:45;;;;;;;0.90;0.90;;;;;;;7.64;100.00;97177.25;4166279;28;20231;-53
2024/01/04 03:48:48;;;;;;;0.85;0.85;;;;;;;7.63;100.00;97181.84;4155200;28;20247;-54
2024/01/04 03:50:50;;;;;;;0.88;0.88;;;;;;;7.64;100.00;97193.56;4171942;28;20624;-53
2024/01/04 03:52:57;;;;;;;0.70;0.70;;;;;;;7.62;100.00;97191.09;4167275;28;20211;-52
2024/01/04 03:55:00;;;;;;;0.63;0.63;;;;;;;7.68;100.00;97194.69;4170020;28;20212;-52
2024/01/04 03:57:03;;;;;;;0.95;0.90;;;;;;;7.65;100.00;97196.03;4168390;28;20569;-51
2024/01/04 03:59:06;;;;;;;0.82;0.82;;;;;;;7.66;100.00;97208.56;4170198;28;20235;-53
2024/01/04 04:01:09;;;;;;;0.93;0.82;;;;;;;7.67;100.00;97206.63;4168373;28;20201;-53
2024/01/04 04:03:17;;;;;;;0.75;0.75;;;;;;;7.67;100.00;97214.81;4169099;28;20220;-51
2024/01/04 04:05:26;;;;;;;0.73;0.73;;;;;;;7.67;100.00;97207.47;4171014;28;20204;-52
2024/01/04 04:07:29;;;;;;;1.85;1.15;;;;;;;7.73;100.00;97208.31;4168425;28;20330;-52
2024/01/04 04:09:33;;;;;;;1.75;0.98;;;;;;;7.65;100.00;97216.97;4171285;28;20289;-52
2024/01/04 04:11:39;;;;;;;0.60;0.60;;;;;;;7.64;100.00;97215.34;4170949;28;20208;-51
2024/01/04 04:13:45;;;;;;;0.68;0.68;;;;;;;7.64;100.00;97220.78;4171775;28;20212;-51
2024/01/04 04:15:51;;;;;;;1.00;0.98;;;;;;;7.66;100.00;97224.88;4178577;28;20283;-52
2024/01/04 04:18:03;;;;;;;0.90;0.90;;;;;;;7.58;100.00;97230.00;4170806;28;20266;-52
2024/01/04 04:20:10;;;;;;;0.80;0.80;;;;;;;7.63;100.00;97224.59;4176273;28;20232;-54
2024/01/04 04:22:13;;;;;;;1.95;1.13;;;;;;;7.62;100.00;97223.75;4169885;28;20213;-52
2024/01/04 04:24:16;;;;;;;0.98;0.98;;;;;;;7.62;100.00;97223.75;4169222;28;20204;-49
2024/01/04 04:26:23;;;;;;;0.52;0.52;;;;;;;7.63;100.00;97230.84;4166399;28;20282;-52
2024/01/04 04:28:26;;;;;;;0.70;0.70;;;;;;;7.65;100.00;97233.31;4172599;28;20223;-53
2024/01/04 04:30:30;;;;;;;0.88;0.88;;;;;;;7.62;100.00;97245.53;4171339;28;20232;-52
2024/01/04 04:32:36;;;;;;;1.15;1.00;;;;;;;7.54;100.00;97245.22;4172055;28;20205;-53
2024/01/04 04:34:38;;;;;;;0.80;0.80;;;;;;;7.65;100.00;97244.19;4169661;28;20309;-51
2024/01/04 04:36:40;;;;;;;1.13;0.93;;;;;;;7.58;100.00;97238.16;4170662;28;20209;-53
2024/01/04 04:38:42;;;;;;;1.52;1.42;;;;;;;7.61;100.00;97243.91;4169129;28;20201;-53
2024/01/04 04:40:44;;;;;;;1.00;0.88;;;;;;;7.58;100.00;97249.06;4172377;28;20208;-50
2024/01/04 04:42:46;;;;;;;0.85;0.85;;;;;;;7.58;100.00;97249.06;4169497;28;20208;-51
2024/01/04 04:44:47;;;;;;;0.90;0.90;;;;;;;7.56;100.00;97251.22;4170106;28;20200;-52
2024/01/04 04:46:49;;;;;;;2.78;0.77;;;;;;;7.58;100.00;97254.50;4170134;28;20228;-51
2024/01/04 04:48:55;;;;;;;0.88;0.82;;;;;;;7.64;100.00;97248.00;4166843;28;20658;-52
2024/01/04 04:50:57;;;;;;;0.68;0.68;;;;;;;7.63;100.00;97258.06;4168759;28;20220;-50
2024/01/04 04:52:59;;;;;;;0.70;0.70;;;;;;;7.63;100.00;97251.81;4167149;28;20212;-51
2024/01/04 04:55:02;;;;;;;2.22;1.40;;;;;;;7.66;100.00;97260.28;4168733;28;20216;-50
2024/01/04 04:57:06;;;;;;;0.95;0.93;;;;;;;7.69;100.00;97256.22;4171043;28;20209;-54
2024/01/04 04:59:09;;;;;;;0.70;0.70;;;;;;;7.66;100.00;97273.06;4176983;28;20227;-51
2024/01/04 05:01:12;;;;;;;0.70;0.70;;;;;;;7.64;100.00;97276.06;4166728;28;20648;-51
2024/01/04 05:03:13;;;;;;;0.82;0.82;;;;;;;7.59;100.00;97283.34;4170484;28;20209;-51
2024/01/04 05:05:15;;;;;;;0.70;0.70;;;;;;;7.57;100.00;97285.53;4177846;28;20211;-51
2024/01/04 05:07:17;;;;;;;0.95;0.95;;;;;;;7.62;100.00;97285.56;4177346;28;20315;-54
2024/01/04 05:09:19;;;;;;;0.98;0.98;;;;;;;7.55;100.00;97284.97;4169745;28;20653;-51
2024/01/04 05:11:21;;;;;;;1.08;1.00;;;;;;;7.55;100.00;97287.69;4170024;28;20216;-51
2024/01/04 05:13:22;;;;;;;1.00;0.95;;;;;;;7.54;100.00;97286.03;4166741;28;20205;-52
2024/01/04 05:15:25;;;;;;;1.38;0.73;;;;;;;7.52;100.00;97288.19;4172414;28;20271;-53
2024/01/04 05:17:27;;;;;;;1.48;0.88;;;;;;;7.47;100.00;97290.88;4165827;28;20208;-51
2024/01/04 05:19:28;;;;;;;4.43;1.23;;;;;;;7.52;100.00;97290.94;4173706;28;20266;-51
2024/01/04 05:21:34;;;;;;;0.77;0.77;;;;;;;7.52;100.00;97299.91;4171490;28;20204;-51
2024/01/04 05:23:35;;;;;;;0.73;0.73;;;;;;;7.51;100.00;97292.00;4170729;28;20202;-51
2024/01/04 05:25:37;;;;;;;0.70;0.70;;;;;;;7.50;100.00;97295.81;4170433;28;20295;-50
2024/01/04 05:27:42;;;;;;;0.98;0.98;;;;;;;7.56;100.00;97292.06;4168915;28;20224;-53
2024/01/04 05:29:44;;;;;;;1.00;1.00;;;;;;;7.56;100.00;97309.19;4168651;28;20234;-50
2024/01/04 05:31:46;;;;;;;0.82;0.77;;;;;;;7.59;100.00;97305.97;4169527;28;20240;-52
2024/01/04 05:33:47;;;;;;;1.27;1.23;;;;;;;7.52;100.00;97309.97;4169528;28;20608;-51
2024/01/04 05:35:51;;;;;;;3.92;0.90;;;;;;;7.51;100.00;97311.06;4170063;28;20262;-51
2024/01/04 05:37:53;;;;;;;1.15;1.15;;;;;;;7.55;100.00;97326.59;4164759;28;20205;-51
2024/01/04 05:39:54;;;;;;;0.70;0.70;;;;;;;7.54;100.00;97324.97;4174375;28;20227;-52
2024/01/04 05:42:01;;;;;;;1.80;1.05;;;;;;;7.56;100.00;97330.97;4166370;28;20254;-52
2024/01/04 05:44:03;;;;;;;1.02;0.70;;;;;;;7.60;100.00;97334.81;4166484;28;20212;-51
2024/01/04 05:46:05;;;;;;;0.80;0.80;;;;;;;7.56;100.00;97335.59;4168699;28;20652;-51
2024/01/04 05:48:07;;;;;;;0.85;0.80;;;;;;;7.53;100.00;97336.09;4166964;28;20260;-50
2024/01/04 05:50:09;;;;;;;0.52;0.52;;;;;;;7.55;100.00;97337.50;4157414;28;20232;-52
2024/01/04 05:52:12;;;;;;;1.30;0.88;;;;;;;7.51;100.00;97338.28;4167648;28;20255;-51
2024/01/04 05:54:13;;;;;;;0.70;0.70;;;;;;;7.55;100.00;97342.94;4167596;28;20574;-53
2024/01/04 05:56:15;;;;;;;1.83;1.50;;;;;;;7.57;100.00;97329.06;4166146;28;20924;-51
2024/01/04 05:58:17;;;;;;;2.42;0.85;;;;;;;7.54;100.00;97335.84;4168062;28;20764;-50
2024/01/04 06:00:19;;;;;;;1.27;0.90;;;;;;;7.53;100.00;97345.09;4174727;28;20228;-52
2024/01/04 06:02:22;;;;;;;1.45;0.70;;;;;;;7.54;100.00;97337.75;4180094;28;20245;-51
2024/01/04 06:04:23;;;;;;;0.63;0.63;;;;;;;7.44;100.00;97343.13;4166064;28;20629;-52
2024/01/04 06:06:26;;;;;;;0.80;0.80;;;;;;;7.50;100.00;97331.19;4164789;28;20201;-51
2024/01/04 06:08:27;;;;;;;5.78;1.48;;;;;;;7.45;100.00;97342.03;4166342;28;21065;-51
2024/01/04 06:10:29;;;;;;;0.60;0.60;;;;;;;7.47;100.00;97342.59;4166538;28;20604;-53
2024/01/04 06:12:31;;;;;;;1.23;1.23;;;;;;;7.42;100.00;97342.56;4174310;28;20923;-51
2024/01/04 06:14:33;;;;;;;2.22;1.27;;;;;;;7.40;100.00;97344.69;4197326;28;20618;-53
2024/01/04 06:16:34;;;;;;;1.23;1.23;;;;;;;7.37;100.00;97334.34;4170187;28;20264;-53
2024/01/04 06:18:36;;;;;;;13.05;1.23;;;;;;;7.38;100.00;97338.69;4168195;28;20265;-53
2024/01/04 06:20:39;;;;;;;2.05;1.10;;;;;;;7.31;100.00;97340.81;4166184;28;20989;-52
2024/01/04 06:22:41;;;;;;;2.40;2.20;;;;;;;7.33;100.00;97344.09;4168619;28;20204;-53
2024/01/04 06:24:42;;;;;;;0.85;0.82;;;;;;;7.34;100.00;97356.59;4164398;28;20255;-52
2024/01/04 06:26:44;;;;;;;6.95;1.10;;;;;;;7.36;100.00;97359.91;4152086;28;20227;-52
2024/01/04 06:28:46;;;;;;;8.30;1.17;;;;;;;7.36;100.00;97362.63;4167220;28;20292;-51
2024/01/04 06:30:48;;;;;;;0.63;0.60;;;;;;;7.33;100.00;97360.41;4171633;28;20243;-52
2024/01/04 06:32:50;;;;;;;0.82;0.82;;;;;;;7.38;100.00;97363.19;4170309;28;20212;-52
2024/01/04 06:34:52;;;;;;;1.55;1.45;;;;;;;7.39;100.00;97365.66;4164672;28;20698;-52
2024/01/04 06:36:54;;;;;;;5.68;1.23;;;;;;;7.39;100.00;97364.84;4164705;28;20207;-52
2024/01/04 06:38:55;;;;;;;1.48;0.80;;;;;;;7.39;100.00;97365.66;4165987;28;20228;-54
2024/01/04 06:40:58;;;;;;;3.65;0.93;;;;;;;7.35;100.00;97375.41;4166445;28;20213;-52
2024/01/04 06:43:00;;;;;;;3.50;1.60;;;;;;;7.38;100.00;97369.47;4167022;28;20247;-52
2024/01/04 06:45:05;;;;;;;0.77;0.77;;;;;;;7.39;100.00;97371.09;4167089;28;20217;-53
2024/01/04 06:47:07;;;;;;;1.30;1.20;;;;;;;7.40;100.00;97374.63;4167200;28;20275;-52
2024/01/04 06:49:09;;;;;;;3.10;0.82;;;;;;;7.40;100.00;97371.91;4165780;28;20228;-51
2024/01/04 06:51:12;;;;;;;2.38;1.60;;;;;;;7.37;100.00;97372.44;4171720;28;20670;-51
2024/01/04 06:53:14;;;;;;;0.90;0.90;;;;;;;7.37;100.00;97372.44;4170898;28;20217;-54
2024/01/04 06:55:16;;;;;;;1.85;1.10;;;;;;;7.33;100.00;97382.19;4167828;28;20633;-55
2024/01/04 06:57:18;;;;;;;0.80;0.80;;;;;;;7.33;100.00;97382.19;4167739;28;20207;-51
2024/01/04 06:59:20;;;;;;;1.30;0.88;;;;;;;7.37;100.00;97388.75;4168640;28;20235;-51
2024/01/04 07:01:21;;;;;;;1.88;1.30;;;;;;;7.35;100.00;97380.06;4170847;28;20667;-52
2024/01/04 07:03:23;;;;;;;0.77;0.77;;;;;;;7.35;100.00;97390.94;4167795;28;20717;-51
2024/01/04 07:05:25;;;;;;;1.50;1.40;;;;;;;7.35;100.00;97385.50;4170412;28;20223;-53
2024/01/04 07:07:27;;;;;;;1.02;1.02;;;;;;;7.33;100.00;97388.47;4166179;28;20284;-53
2024/01/04 07:09:29;;;;;;;1.85;1.40;;;;;;;7.33;100.00;97409.38;4168040;28;20231;-55
2024/01/04 07:11:30;;;;;;;0.68;0.60;;;;;;;7.30;100.00;97399.84;4170276;28;20254;-51
2024/01/04 07:13:35;;;;;;;1.15;1.15;;;;;;;7.30;100.00;97399.03;4168615;28;20660;-52
2024/01/04 07:15:36;;;;;;;1.25;1.25;;;;;;;7.30;100.00;97402.56;4173894;28;20212;-50
2024/01/04 07:17:38;;;;;;;2.92;0.95;;;;;;;7.33;100.00;97412.13;4168011;28;20215;-51
2024/01/04 07:19:42;;;;;;;1.63;1.42;;;;;;;7.28;100.00;97418.31;4199838;28;20226;-51
2024/01/04 07:21:46;;;;;;;1.60;1.17;;;;;;;7.31;100.00;97411.56;4168234;28;20709;-52
2024/01/04 07:23:48;;;;;;;1.25;1.25;;;;;;;7.30;100.00;97426.25;4168208;28;20205;-51
2024/01/04 07:25:51;;;;;;;3.03;2.15;;;;;;;7.31;100.00;97417.00;4167722;28;20274;-54
2024/01/04 07:27:52;;;;;;;19.38;2.00;;;;;;;7.30;100.00;97435.22;4177985;28;20256;-52
2024/01/04 07:29:55;;;;;;;5.00;0.90;;;;;;;7.29;100.00;97432.75;4168251;28;20259;-52
2024/01/04 07:31:57;;;;;;;2.08;0.80;;;;;;;7.35;100.00;97450.78;4167481;28;20212;-51
2024/01/04 07:34:00;;;;;;;0.90;0.90;;;;;;;7.28;100.00;97444.72;4168526;28;20204;-50
2024/01/04 07:36:02;;;;;;;2.88;1.30;;;;;;;7.28;100.00;97447.44;4171256;28;20214;-52
2024/01/04 07:38:04;;;;;;;5.90;1.15;;;;;;;7.24;100.00;97459.91;4169003;28;20691;-52
2024/01/04 07:40:07;;;;;;;3.25;1.20;;;;;;;7.30;100.00;97458.88;4170584;28;20785;-52
2024/01/04 07:42:09;;;;;;;8.07;2.42;;;;;;;7.26;100.00;97463.19;4169706;28;20554;-52
2024/01/04 07:44:11;;;;;;;0.90;0.90;;;;;;;7.27;100.00;97462.94;4169710;28;20691;-51
2024/01/04 07:46:13;;;;;;;9.25;1.45;;;;;;;7.23;100.00;97469.94;4169551;28;20344;-52
2024/01/04 07:48:15;;;;;;;1.23;1.23;;;;;;;7.23;100.00;97474.59;4171065;28;20235;-51
2024/01/04 07:50:17;;;;;;;0.82;0.82;;;;;;;7.21;100.00;97476.75;4169323;28;20228;-54
2024/01/04 07:52:18;;;;;;;4.00;1.17;;;;;;;7.20;100.00;97480.53;4166726;28;20200;-50
2024/01/04 07:54:20;;;;;;;8.27;1.92;;;;;;;7.15;100.00;97477.75;4169610;28;20209;-54
2024/01/04 07:56:22;;;;;;;1.35;1.00;;;;;;;7.17;100.00;97479.13;4169503;28;20204;-51
2024/01/04 07:58:24;;;;;;;3.90;1.75;;;;;;;7.11;100.00;97482.06;4176208;28;20970;-54
2024/01/04 08:00:26;;;;;;;1.08;1.08;;;;;;;7.10;100.00;97480.41;4167592;28;20589;-54
2024/01/04 08:02:30;;;;;;;1.23;1.23;;;;;;;7.16;100.00;97487.56;4169325;22;20349;-67
2024/01/04 08:04:32;;;;;;;1.15;1.13;;;;;;;7.15;100.00;97494.09;4129715;28;20202;-67
2024/01/04 08:06:33;;;;;;;1.50;0.95;;;;;;;7.15;100.00;97488.66;4132660;28;20280;-68
2024/01/04 08:08:35;;;;;;;1.55;1.17;;;;;;;7.16;100.00;97495.72;4130055;28;20226;-68
2024/01/04 08:10:37;;;;;;;1.20;1.20;;;;;;;7.19;100.00;97500.66;4129231;28;20264;-67
2024/01/04 08:12:42;;;;;;;1.75;1.33;;;;;;;7.13;100.00;97507.09;4128075;28;20493;-68
2024/01/04 08:14:44;;;;;;;2.00;1.77;;;;;;;7.13;100.00;97507.09;4127575;28;20293;-66
2024/01/04 08:16:45;;;;;;;7.78;1.40;;;;;;;7.16;100.00;97506.59;4132678;28;20205;-67
2024/01/04 08:18:47;;;;;;;16.58;1.90;;;;;;;7.12;100.00;97516.34;4131473;28;20213;-67
2024/01/04 08:20:49;;;;;;;1.92;1.70;;;;;;;7.11;100.00;97503.81;4134273;28;20257;-67
2024/01/04 08:22:50;;;;;;;1.13;1.13;;;;;;;7.15;100.00;97499.53;4132407;28;20213;-67
2024/01/04 08:24:52;;;;;;;0.90;0.90;;;;;;;7.15;100.00;97507.69;4135000;28;20210;-68
2024/01/04 08:26:53;;;;;;;1.23;1.13;;;;;;;7.19;100.00;97506.09;4130026;28;20841;-67
2024/01/04 08:28:55;;;;;;;1.73;1.58;;;;;;;7.20;100.00;97502.28;4132587;28;20229;-68
2024/01/04 08:30:56;;;;;;;11.98;1.50;;;;;;;7.16;100.00;97509.31;4163510;28;20323;-67
2024/01/04 08:33:00;;;;;;;1.02;1.02;;;;;;;7.13;100.00;97501.66;4133286;28;20326;-67
2024/01/04 08:35:02;;;;;;;1.45;1.42;;;;;;;7.11;100.00;97514.69;4160808;28;20803;-68
2024/01/04 08:37:03;;;;;;;1.60;1.50;;;;;;;7.16;100.00;97520.22;4130663;28;20577;-67
2024/01/04 08:39:06;;;;;;;2.08;1.90;;;;;;;7.10;100.00;97515.78;4130700;28;20717;-67
2024/01/04 08:41:07;;;;;;;3.33;1.58;;;;;;;7.13;100.00;97524.25;4131029;28;20205;-67
2024/01/04 08:43:09;;;;;;;9.20;1.75;;;;;;;7.17;100.00;97528.09;4158896;28;20646;-68
2024/01/04 08:45:11;;;;;;;6.80;1.65;;;;;;;7.18;100.00;97537.09;4129118;28;20205;-68
2024/01/04 08:47:12;;;;;;;1.45;1.27;;;;;;;7.11;100.00;97541.88;4159822;28;20214;-68
2024/01/04 08:49:14;;;;;;;6.20;1.17;;;;;;;7.19;100.00;97549.59;4128270;28;20226;-68
2024/01/04 08:51:16;;;;;;;1.73;1.63;;;;;;;7.14;100.00;97546.81;4129544;28;20201;-68
2024/01/04 08:53:20;;;;;;;6.50;1.58;;;;;;;7.12;100.00;97559.84;4128303;28;20206;-68
2024/01/04 08:55:22;;;;;;;1.85;1.50;;;;;;;7.15;100.00;97548.50;4159571;28;20235;-68
2024/01/04 08:57:24;;;;;;;3.10;2.95;;;;;;;7.10;100.00;97572.88;4130041;28;20225;-67
2024/01/04 08:59:26;;;;;;;3.42;1.20;;;;;;;7.08;100.00;97569.59;4129995;28;20788;-67
2024/01/04 09:01:30;;;;;;;0.80;0.80;;;;;;;7.04;100.00;97577.44;4129796;28;20210;-67
2024/01/04 09:03:32;;;;;;;1.20;1.15;;;;;;;7.06;100.00;97582.63;4127254;28;20632;-68
2024/01/04 09:05:34;;;;;;;9.52;1.13;;;;;;;7.10;100.00;97575.63;4133202;28;20652;-67
2024/01/04 09:07:36;;;;;;;0.88;0.88;;;;;;;7.05;100.00;97580.97;4131700;28;20210;-68
2024/01/04 09:09:37;;;;;;;5.78;1.50;;;;;;;7.06;100.00;97588.88;4127145;28;20272;-68
2024/01/04 09:11:41;;;;;;;3.60;1.50;;;;;;;7.06;100.00;97593.50;4161079;28;20208;-68
2024/01/04 09:13:47;;;;;;;2.28;1.35;;;;;;;7.03;100.00;97594.00;4128776;28;20214;-67
2024/01/04 09:15:48;;;;;;;6.82;1.25;;;;;;;7.08;100.00;97596.81;4129732;28;20213;-67
2024/01/04 09:17:50;;;;;;;5.07;1.67;;;;;;;7.09;100.00;97598.44;4126359;28;20260;-67
2024/01/04 09:19:52;;;;;;;1.13;1.08;;;;;;;7.14;100.00;97601.22;4125731;28;20234;-68
2024/01/04 09:21:54;;;;;;;6.80;1.73;;;;;;;7.07;100.00;97595.13;4129560;28;20304;-68
2024/01/04 09:23:56;;;;;;;7.20;3.20;;;;;;;7.12;100.00;97603.38;4129947;28;20276;-69
2024/01/04 09:25:57;;;;;;;3.10;2.13;;;;;;;7.14;100.00;97602.06;4127070;28;20316;-68
2024/01/04 09:27:59;;;;;;;5.97;2.95;;;;;;;7.23;100.00;97607.91;4128993;28;20222;-69
2024/01/04 09:30:01;;;;;;;1.65;1.58;;;;;;;7.23;100.00;97610.63;4158894;28;20282;-68
2024/01/04 09:32:03;;;;;;;2.00;1.80;;;;;;;7.25;100.00;97617.47;4128733;28;20237;-69
2024/01/04 09:34:04;;;;;;;8.30;1.73;;;;;;;7.26;100.00;97620.97;4131238;28;20210;-68
2024/01/04 09:36:07;;;;;;;2.38;2.28;;;;;;;7.27;100.00;97625.34;4131824;28;20202;-68
2024/01/04 09:38:09;;;;;;;3.88;2.45;;;;;;;7.32;100.00;97625.41;4157462;28;20201;-68
2024/01/04 09:40:11;;;;;;;6.28;2.13;;;;;;;7.30;100.00;97633.81;4130166;28;20244;-69
2024/01/04 09:42:14;;;;;;;0.95;0.95;;;;;;;7.32;100.00;97639.88;4125046;28;20213;-69
2024/01/04 09:44:16;;;;;;;1.38;1.27;;;;;;;7.38;100.00;97651.63;4131595;28;20269;-68
2024/01/04 09:46:19;;;;;;;3.15;1.70;;;;;;;7.42;100.00;97653.59;4161263;28;20204;-69
2024/01/04 09:48:23;;;;;;;3.35;1.90;;;;;;;7.49;100.00;97653.44;4131817;28;20234;-69
2024/01/04 09:50:36;;;;;;;2.88;1.58;;;;;;;7.49;100.00;97661.59;4131184;28;20234;-69